Time;durP1;ratioP1;P1;durP2;ratioP2;P2;SDS_P1;SDS_P2;PMS_P1;PMS_P2;Temp;Humidity;BMP_temperature;BMP_pressure;BME280_temperature;BME280_humidity;BME280_pressure;Samples;Min_cycle;Max_cycle;Signal;HPM_P1;HPM_P2
2023/04/15 00:00:59;;;;;;;;;;;;;;;7.53;92.26;99851.02;105091;1260;74837;-71
2023/04/15 00:03:28;;;;;;;;;;;;;;;7.55;92.31;99848.92;105111;1257;69507;-72
2023/04/15 00:06:00;;;;;;;;;;;;;;;7.54;92.30;99854.71;105215;1258;73299;-71
2023/04/15 00:08:30;;;;;;;;;;;;;;;7.48;92.59;99855.86;105276;1257;61154;-74
2023/04/15 00:11:01;;;;;;;;;;;;;;;7.44;92.92;99855.20;105145;1260;61151;-70
2023/04/15 00:13:33;;;;;;;;;;;;;;;7.43;92.98;99855.44;105250;1260;74150;-69
2023/04/15 00:16:02;;;;;;;;;;;;;;;7.44;93.20;99854.86;105129;1261;69956;-71
2023/04/15 00:18:30;;;;;;;;;;;;;;;7.42;93.38;99856.59;105012;1256;73099;-71
2023/04/15 00:20:59;;;;;;;;;;;;;;;7.38;93.53;99852.56;105212;1261;60877;-72
2023/04/15 00:23:27;;;;;;;;;;;;;;;7.38;93.75;99854.70;105215;1257;60572;-73
2023/04/15 00:25:56;;;;;;;;;;;;;;;7.42;93.97;99851.52;105180;1260;75674;-73
2023/04/15 00:28:24;;;;;;;;;;;;;;;7.46;93.72;99847.27;105193;1256;69500;-73
2023/04/15 00:30:52;;;;;;;;;;;;;;;7.47;93.62;99842.83;105103;1257;73528;-74
2023/04/15 00:33:20;;;;;;;;;;;;;;;7.48;93.50;99839.14;104897;1256;60552;-73
2023/04/15 00:35:48;;;;;;;;;;;;;;;7.44;93.42;99841.40;105188;1257;60403;-74
2023/04/15 00:38:17;;;;;;;;;;;;;;;7.42;93.47;99838.89;105276;1260;73918;-72
2023/04/15 00:40:45;;;;;;;;;;;;;;;7.43;93.57;99844.30;105358;1257;68881;-73
2023/04/15 00:43:13;;;;;;;;;;;;;;;7.45;93.78;99842.05;105205;1257;72884;-75
2023/04/15 00:45:42;;;;;;;;;;;;;;;7.48;93.71;99843.42;104923;1256;62238;-76
2023/04/15 00:48:10;;;;;;;;;;;;;;;7.46;93.46;99840.85;105615;1256;61636;-73
2023/04/15 00:50:39;;;;;;;;;;;;;;;7.43;93.70;99838.96;105963;1258;74734;-73
2023/04/15 00:53:07;;;;;;;;;;;;;;;7.41;93.88;99841.70;105860;1256;67994;-74
2023/04/15 00:55:36;;;;;;;;;;;;;;;7.38;93.98;99843.50;105657;1260;72506;-74
2023/04/15 00:58:12;;;;;;;;;;;;;;;7.31;94.22;99840.63;105766;1257;61259;-74
2023/04/15 01:00:43;;;;;;;;;;;;;;;7.29;94.36;99843.54;105711;1257;61779;-74
2023/04/15 01:03:11;;;;;;;;;;;;;;;7.25;94.79;99844.40;105696;1261;73909;-74
2023/04/15 01:05:40;;;;;;;;;;;;;;;7.22;94.95;99848.23;105752;1256;68328;-73
2023/04/15 01:08:09;;;;;;;;;;;;;;;7.22;95.09;99844.00;105347;1260;72244;-73
2023/04/15 01:10:38;;;;;;;;;;;;;;;7.22;95.22;99843.83;105250;1260;61296;-75
2023/04/15 01:13:07;;;;;;;;;;;;;;;7.19;95.39;99847.37;105331;1262;60708;-73
2023/04/15 01:15:35;;;;;;;;;;;;;;;7.15;95.53;99846.29;105528;1261;73665;-74
2023/04/15 01:18:03;;;;;;;;;;;;;;;7.14;95.78;99843.23;105701;1257;68319;-75
2023/04/15 01:20:33;;;;;;;;;;;;;;;7.13;95.94;99839.77;105696;1258;73423;-76
2023/04/15 01:23:02;;;;;;;;;;;;;;;7.13;96.29;99843.16;105589;1256;61280;-76
2023/04/15 01:25:33;;;;;;;;;;;;;;;7.13;96.41;99838.71;105436;1257;60396;-74
2023/04/15 01:28:02;;;;;;;;;;;;;;;7.15;96.32;99840.77;105351;1260;73119;-75
2023/04/15 01:30:34;;;;;;;;;;;;;;;7.17;96.34;99846.23;105407;1257;68024;-73
2023/04/15 01:33:03;;;;;;;;;;;;;;;7.18;96.18;99847.70;105298;1261;72520;-73
2023/04/15 01:35:31;;;;;;;;;;;;;;;7.16;96.13;99853.39;105384;1259;62501;-74
2023/04/15 01:38:04;;;;;;;;;;;;;;;7.15;96.04;99855.54;105465;1257;61140;-73
2023/04/15 01:40:33;;;;;;;;;;;;;;;7.17;96.12;99853.96;105339;1260;74554;-75
2023/04/15 01:43:03;;;;;;;;;;;;;;;7.19;95.88;99855.56;105618;1260;67493;-74
2023/04/15 01:45:32;;;;;;;;;;;;;;;7.17;95.74;99857.80;105255;1262;71637;-73
2023/04/15 01:48:02;;;;;;;;;;;;;;;7.15;95.67;99857.90;105232;1256;61197;-72
2023/04/15 01:50:35;;;;;;;;;;;;;;;7.12;95.57;99855.02;105275;1257;61581;-74
2023/04/15 01:53:03;;;;;;;;;;;;;;;7.07;95.47;99855.80;105133;1260;73672;-72
2023/04/15 01:55:32;;;;;;;;;;;;;;;7.04;95.28;99849.67;105421;1261;68472;-72
2023/04/15 01:58:00;;;;;;;;;;;;;;;6.97;95.03;99851.55;105184;1260;72322;-72
2023/04/15 02:00:28;;;;;;;;;;;;;;;6.92;95.08;99851.02;105192;1261;62260;-71
2023/04/15 02:02:58;;;;;;;;;;;;;;;6.90;94.97;99859.20;105286;1257;60655;-72
2023/04/15 02:05:26;;;;;;;;;;;;;;;6.87;94.84;99853.55;105347;1260;74490;-69
2023/04/15 02:07:54;;;;;;;;;;;;;;;6.86;94.87;99854.79;105110;1256;68435;-70
2023/04/15 02:10:23;;;;;;;;;;;;;;;6.85;94.92;99858.39;105261;1260;73245;-71
2023/04/15 02:12:53;;;;;;;;;;;;;;;6.83;94.99;99858.88;105135;1258;63866;-72
2023/04/15 02:15:22;;;;;;;;;;;;;;;6.80;95.11;99866.05;105352;1257;60480;-72
2023/04/15 02:17:51;;;;;;;;;;;;;;;6.82;95.31;99865.63;105207;1261;75566;-73
2023/04/15 02:20:21;;;;;;;;;;;;;;;6.81;95.28;99873.56;105091;1260;67683;-72
2023/04/15 02:22:51;;;;;;;;;;;;;;;6.77;95.45;99875.58;105374;1256;72134;-71
2023/04/15 02:25:22;;;;;;;;;;;;;;;6.78;95.65;99877.95;105434;1258;61528;-72
2023/04/15 02:27:52;;;;;;;;;;;;;;;6.78;95.35;99878.83;105126;1257;60794;-73
2023/04/15 02:30:22;;;;;;;;;;;;;;;6.75;95.38;99881.77;105161;1262;73556;-73
2023/04/15 02:32:51;;;;;;;;;;;;;;;6.74;95.37;99881.48;105739;1256;68557;-73
2023/04/15 02:35:21;;;;;;;;;;;;;;;6.73;95.31;99883.67;105211;1259;71422;-72
2023/04/15 02:37:49;;;;;;;;;;;;;;;6.71;95.32;99888.59;105218;1259;62836;-74
2023/04/15 02:40:18;;;;;;;;;;;;;;;6.67;95.36;99888.30;105157;1257;61685;-73
2023/04/15 02:42:47;;;;;;;;;;;;;;;6.62;95.48;99888.30;105293;1260;73748;-73
2023/04/15 02:45:18;;;;;;;;;;;;;;;6.59;95.67;99885.70;105314;1261;69531;-75
2023/04/15 02:47:49;;;;;;;;;;;;;;;6.60;95.88;99888.41;105252;1257;73443;-72
2023/04/15 02:50:18;;;;;;;;;;;;;;;6.64;96.04;99894.86;105428;1260;62557;-73
2023/04/15 02:52:46;;;;;;;;;;;;;;;6.66;96.09;99902.58;105415;1256;62085;-72
2023/04/15 02:55:16;;;;;;;;;;;;;;;6.70;96.10;99907.92;105129;1258;74259;-73
2023/04/15 02:57:45;;;;;;;;;;;;;;;6.73;96.01;99908.91;105248;1257;67869;-73
2023/04/15 03:00:13;;;;;;;;;;;;;;;6.72;95.96;99912.67;105211;1262;72790;-73
2023/04/15 03:02:44;;;;;;;;;;;;;;;6.67;95.92;99915.89;105700;1256;62154;-73
2023/04/15 03:05:13;;;;;;;;;;;;;;;6.67;96.28;99916.04;105564;1257;60670;-71
2023/04/15 03:07:49;;;;;;;;;;;;;;;6.69;96.27;99921.63;105244;1262;74376;-71
2023/04/15 03:10:17;;;;;;;;;;;;;;;6.69;96.50;99921.75;105320;1260;67105;-70
2023/04/15 03:12:47;;;;;;;;;;;;;;;6.66;96.59;99921.85;105352;1257;72580;-71
2023/04/15 03:15:24;;;;;;;;;;;;;;;6.63;96.61;99921.84;105183;1256;61345;-71
2023/04/15 03:17:53;;;;;;;;;;;;;;;6.61;96.59;99920.84;105315;1256;61490;-74
2023/04/15 03:20:21;;;;;;;;;;;;;;;6.58;96.35;99921.70;105185;1257;72681;-75
2023/04/15 03:22:51;;;;;;;;;;;;;;;6.56;96.21;99929.30;105129;1261;69567;-74
2023/04/15 03:25:21;;;;;;;;;;;;;;;6.52;96.15;99933.97;105343;1262;72503;-72
2023/04/15 03:27:49;;;;;;;;;;;;;;;6.49;96.18;99932.31;105399;1257;63647;-71
2023/04/15 03:30:31;;;;;;;;;;;;;;;6.44;96.12;99930.83;105244;1259;61928;-73
2023/04/15 03:33:00;;;;;;;;;;;;;;;6.44;96.10;99931.57;105284;1258;75740;-71
2023/04/15 03:35:29;;;;;;;;;;;;;;;6.41;95.95;99938.73;105463;1261;66356;-73
2023/04/15 03:37:57;;;;;;;;;;;;;;;6.35;96.12;99941.88;105356;1258;74475;-72
2023/04/15 03:40:25;;;;;;;;;;;;;;;6.29;96.48;99939.94;105234;1257;61818;-73
2023/04/15 03:42:53;;;;;;;;;;;;;;;6.25;96.77;99941.56;105253;1257;60486;-71
2023/04/15 03:45:22;;;;;;;;;;;;;;;6.23;97.13;99943.23;105328;1262;75270;-72
2023/04/15 03:47:52;;;;;;;;;;;;;;;6.22;97.56;99935.48;105338;1258;69011;-73
2023/04/15 03:50:20;;;;;;;;;;;;;;;6.23;97.59;99935.66;105216;1257;72434;-72
2023/04/15 03:52:49;;;;;;;;;;;;;;;6.27;97.47;99934.25;105175;1257;62011;-73
2023/04/15 03:55:19;;;;;;;;;;;;;;;6.26;97.26;99933.84;105192;1257;61585;-73
2023/04/15 03:57:47;;;;;;;;;;;;;;;6.23;97.31;99924.86;105138;1262;74444;-71
2023/04/15 04:00:15;;;;;;;;;;;;;;;6.21;97.03;99924.63;105262;1257;68664;-68
2023/04/15 04:02:45;;;;;;;;;;;;;;;6.17;97.04;99926.02;104972;1265;74231;-72
2023/04/15 04:05:13;;;;;;;;;;;;;;;6.16;97.01;99928.68;105219;1260;62346;-70
2023/04/15 04:07:42;;;;;;;;;;;;;;;6.14;96.92;99930.34;105220;1257;61979;-72
2023/04/15 04:10:10;;;;;;;;;;;;;;;6.12;97.01;99936.27;105262;1262;75193;-73
2023/04/15 04:12:38;;;;;;;;;;;;;;;6.11;97.14;99932.53;104746;1258;610712;-73
2023/04/15 04:15:09;;;;;;;;;;;;;;;6.09;97.13;99935.01;105112;1260;72703;-71
2023/04/15 04:17:37;;;;;;;;;;;;;;;6.07;97.22;99935.98;105216;1258;61045;-72
2023/04/15 04:20:06;;;;;;;;;;;;;;;6.05;96.99;99934.13;105279;1260;60919;-72
2023/04/15 04:22:45;;;;;;;;;;;;;;;6.01;97.11;99934.64;105080;1261;75479;-70
2023/04/15 04:25:13;;;;;;;;;;;;;;;6.01;97.35;99932.21;105365;1257;68007;-68
2023/04/15 04:27:42;;;;;;;;;;;;;;;6.04;97.37;99932.49;105419;1260;72597;-70
2023/04/15 04:30:15;;;;;;;;;;;;;;;6.07;97.32;99935.64;105171;1257;60917;-70
2023/04/15 04:32:48;;;;;;;;;;;;;;;6.06;97.11;99934.89;105248;1259;61500;-72
2023/04/15 04:35:16;;;;;;;;;;;;;;;6.04;97.20;99942.80;105306;1260;73256;-70
2023/04/15 04:37:44;;;;;;;;;;;;;;;6.00;97.07;99943.53;105279;1256;68437;-71
2023/04/15 04:40:13;;;;;;;;;;;;;;;5.99;97.18;99941.95;105237;1262;72279;-72
2023/04/15 04:42:41;;;;;;;;;;;;;;;6.00;97.18;99942.70;105057;1261;62488;-70
2023/04/15 04:45:11;;;;;;;;;;;;;;;6.00;96.95;99948.58;105028;1258;60568;-76
2023/04/15 04:47:41;;;;;;;;;;;;;;;5.99;96.98;99946.41;105046;1260;75538;-72
2023/04/15 04:50:09;;;;;;;;;;;;;;;6.02;96.88;99948.11;105131;1260;69802;-77
2023/04/15 04:52:43;;;;;;;;;;;;;;;6.03;96.63;99950.95;105633;1258;74229;-70
2023/04/15 04:55:11;;;;;;;;;;;;;;;6.00;96.43;99950.98;105114;1256;60832;-73
2023/04/15 04:57:39;;;;;;;;;;;;;;;6.00;96.57;99951.70;105163;1257;60110;-71
2023/04/15 05:00:12;;;;;;;;;;;;;;;6.02;96.62;99950.29;105243;1261;74761;-73
2023/04/15 05:02:42;;;;;;;;;;;;;;;6.05;96.69;99941.82;105280;1258;68891;-72
2023/04/15 05:05:12;;;;;;;;;;;;;;;6.09;96.23;99948.95;105096;1261;73489;-72
2023/04/15 05:07:45;;;;;;;;;;;;;;;6.07;95.82;99948.13;105118;1259;62146;-76
2023/04/15 05:10:14;;;;;;;;;;;;;;;6.06;95.66;99948.95;105130;1257;61691;-72
2023/04/15 05:12:43;;;;;;;;;;;;;;;6.04;95.53;99948.93;105226;1261;74779;-72
2023/04/15 05:15:15;;;;;;;;;;;;;;;6.02;95.51;99947.67;105097;1261;67976;-72
2023/04/15 05:25:23;;;;;;;;;;;;;;;6.09;95.79;99963.77;102965;1289;599343;-72
2023/04/15 05:27:52;;;;;;;;;;;;;;;6.11;95.73;99960.18;104921;1270;60384;-70
2023/04/15 05:30:21;;;;;;;;;;;;;;;6.14;95.95;99964.31;104849;1264;60423;-72
2023/04/15 05:33:06;;;;;;;;;;;;;;;6.17;96.12;99968.41;104767;1269;72477;-69
2023/04/15 05:35:35;;;;;;;;;;;;;;;6.16;96.25;99963.98;104695;1267;68385;-71
2023/04/15 05:38:03;;;;;;;;;;;;;;;6.18;96.38;99965.20;104259;1267;611627;-71
2023/04/15 05:40:32;;;;;;;;;;;;;;;6.24;96.23;99966.77;104692;1263;63195;-72
2023/04/15 05:43:01;;;;;;;;;;;;;;;6.28;95.94;99968.67;104850;1266;59773;-74
2023/04/15 05:45:32;;;;;;;;;;;;;;;6.29;95.39;99967.17;104889;1269;72041;-78
2023/04/15 05:48:01;;;;;;;;;;;;;;;6.28;94.83;99969.04;105143;1269;69190;-77
2023/04/15 05:50:29;;;;;;;;;;;;;;;6.27;94.90;99965.35;104752;1267;74613;-76
2023/04/15 05:53:01;;;;;;;;;;;;;;;6.30;95.12;99970.83;104728;1264;60998;-73
2023/04/15 05:55:30;;;;;;;;;;;;;;;6.31;94.81;99970.51;104797;1263;61662;-77
2023/04/15 05:57:59;;;;;;;;;;;;;;;6.34;94.89;99966.41;104937;1269;73026;-74
2023/04/15 06:00:27;;;;;;;;;;;;;;;6.37;94.87;99973.63;104856;1264;68010;-75
2023/04/15 06:02:55;;;;;;;;;;;;;;;6.37;94.86;99971.05;104849;1269;74187;-74
2023/04/15 06:05:25;;;;;;;;;;;;;;;6.38;94.75;99969.18;104908;1264;60450;-77
2023/04/15 06:07:53;;;;;;;;;;;;;;;6.42;94.92;99970.64;105903;1259;60528;-75
2023/04/15 06:10:21;;;;;;;;;;;;;;;6.42;94.64;99967.84;105881;1260;74633;-73
2023/04/15 06:12:49;;;;;;;;;;;;;;;6.45;94.79;99968.72;105239;1257;68541;-75
2023/04/15 06:15:18;;;;;;;;;;;;;;;6.47;94.44;99966.25;105175;1257;73294;-73
2023/04/15 06:17:47;;;;;;;;;;;;;;;6.48;94.32;99968.98;105755;1256;59648;-76
2023/04/15 06:20:15;;;;;;;;;;;;;;;6.50;94.28;99972.15;106119;1253;62102;-74
2023/04/15 06:22:44;;;;;;;;;;;;;;;6.51;94.02;99970.33;105833;1256;73582;-74
2023/04/15 06:25:12;;;;;;;;;;;;;;;6.50;94.02;99976.66;106244;1254;66672;-73
2023/04/15 06:27:42;;;;;;;;;;;;;;;6.51;94.07;99977.64;105684;1254;73177;-77
2023/04/15 06:30:10;;;;;;;;;;;;;;;6.50;94.21;99973.33;106222;1251;64006;-76
2023/04/15 06:32:40;;;;;;;;;;;;;;;6.54;94.24;99975.35;105647;1256;59924;-73
2023/04/15 06:35:08;;;;;;;;;;;;;;;6.57;93.69;99981.90;105558;1257;72661;-73
2023/04/15 06:37:37;;;;;;;;;;;;;;;6.58;93.41;99987.33;105812;1256;67683;-74
2023/04/15 06:40:06;;;;;;;;;;;;;;;6.58;93.15;99991.39;106198;1254;73471;-74
2023/04/15 06:42:34;;;;;;;;;;;;;;;6.58;93.11;99996.41;105888;1257;60843;-74
2023/04/15 06:45:03;;;;;;;;;;;;;;;6.62;93.28;99989.90;105690;1254;60945;-73
2023/04/15 06:47:31;;;;;;;;;;;;;;;6.66;93.30;99992.83;105750;1254;73964;-74
2023/04/15 06:49:59;;;;;;;;;;;;;;;6.69;93.09;100002.92;105836;1254;69951;-73
2023/04/15 06:52:29;;;;;;;;;;;;;;;6.72;93.07;100007.04;106088;1256;72446;-71
2023/04/15 06:54:58;;;;;;;;;;;;;;;6.74;93.00;100005.35;105710;1256;61343;-74
2023/04/15 06:57:27;;;;;;;;;;;;;;;6.74;92.77;100007.48;105816;1253;61630;-74
2023/04/15 06:59:57;;;;;;;;;;;;;;;6.76;92.66;100015.45;105555;1253;71752;-74
2023/04/15 07:02:28;;;;;;;;;;;;;;;6.79;92.79;100018.67;105602;1254;69256;-72
2023/04/15 07:04:56;;;;;;;;;;;;;;;6.81;92.37;100019.10;105602;1254;74408;-72
2023/04/15 07:07:29;;;;;;;;;;;;;;;6.79;92.49;100010.70;105450;1259;63806;-73
2023/04/15 07:09:57;;;;;;;;;;;;;;;6.82;92.58;100009.08;105704;1253;60842;-74
2023/04/15 07:12:28;;;;;;;;;;;;;;;6.88;92.53;100010.91;105583;1257;74899;-71
2023/04/15 07:14:56;;;;;;;;;;;;;;;6.90;92.04;100014.27;105568;1254;68931;-74
2023/04/15 07:17:34;;;;;;;;;;;;;;;6.89;91.92;100013.71;105700;1256;74023;-72
2023/04/15 07:20:04;;;;;;;;;;;;;;;6.88;91.89;100011.70;105644;1256;59654;-74
2023/04/15 07:22:32;;;;;;;;;;;;;;;6.82;91.73;100011.82;105673;1256;60707;-71
2023/04/15 07:25:01;;;;;;;;;;;;;;;6.80;92.01;100010.77;105710;1253;73295;-72
2023/04/15 07:27:31;;;;;;;;;;;;;;;6.78;91.94;100013.51;105515;1254;68302;-72
2023/04/15 07:29:59;;;;;;;;;;;;;;;6.74;92.17;100020.48;106197;1253;74187;-73
2023/04/15 07:32:28;;;;;;;;;;;;;;;6.75;92.02;100022.75;105510;1253;60178;-73
2023/04/15 07:34:57;;;;;;;;;;;;;;;6.75;91.91;100025.58;105643;1254;61993;-72
2023/04/15 07:37:25;;;;;;;;;;;;;;;6.74;91.98;100026.16;105704;1252;74733;-74
2023/04/15 07:39:53;;;;;;;;;;;;;;;6.74;91.92;100028.30;105802;1254;68858;-74
2023/04/15 07:42:26;;;;;;;;;;;;;;;6.72;91.92;100022.92;105602;1255;73823;-76
2023/04/15 07:44:55;;;;;;;;;;;;;;;6.67;92.09;100024.34;105685;1256;62412;-73
2023/04/15 07:47:23;;;;;;;;;;;;;;;6.64;92.38;100026.17;105537;1253;60554;-72
2023/04/15 07:49:51;;;;;;;;;;;;;;;6.61;92.82;100021.19;105648;1252;73029;-74
2023/04/15 07:52:19;;;;;;;;;;;;;;;6.58;93.01;100020.38;105626;1254;68739;-74
2023/04/15 07:54:47;;;;;;;;;;;;;;;6.62;93.30;100025.80;106130;1254;73600;-74
2023/04/15 07:57:16;;;;;;;;;;;;;;;6.66;92.53;100033.94;105694;1254;61288;-73
2023/04/15 07:59:46;;;;;;;;;;;;;;;6.63;92.40;100040.88;105750;1254;60526;-75
2023/04/15 08:02:14;;;;;;;;;;;;;;;6.64;92.49;100039.09;105690;1257;74130;-73
2023/04/15 08:04:42;;;;;;;;;;;;;;;6.67;92.35;100040.26;105876;1254;69778;-73
2023/04/15 08:07:11;;;;;;;;;;;;;;;6.67;91.76;100037.88;105731;1256;74014;-71
2023/04/15 08:09:40;;;;;;;;;;;;;;;6.65;90.85;100035.30;105566;1254;62229;-74
2023/04/15 08:12:12;;;;;;;;;;;;;;;6.59;90.19;100034.73;105665;1253;60270;-74
2023/04/15 08:14:52;;;;;;;;;;;;;;;6.58;90.25;100038.27;105645;1256;73363;-72
2023/04/15 08:17:23;;;;;;;;;;;;;;;6.54;90.02;100034.96;105396;1257;67486;-73
2023/04/15 08:19:52;;;;;;;;;;;;;;;6.49;89.89;100037.20;105200;1256;71577;-74
2023/04/15 08:22:20;;;;;;;;;;;;;;;6.46;89.92;100040.90;105217;1257;62811;-76
2023/04/15 08:24:56;;;;;;;;;;;;;;;6.42;90.01;100040.91;105242;1257;60098;-72
2023/04/15 08:27:30;;;;;;;;;;;;;;;6.39;90.36;100039.02;105176;1260;73150;-74
2023/04/15 08:30:00;;;;;;;;;;;;;;;6.41;90.49;100039.27;105385;1260;69142;-75
2023/04/15 08:32:32;;;;;;;;;;;;;;;6.46;90.16;100033.79;105841;1257;74150;-76
2023/04/15 08:35:06;;;;;;;;;;;;;;;6.48;89.89;100024.77;105283;1256;61360;-72
2023/04/15 08:37:34;;;;;;;;;;;;;;;6.51;89.46;100022.32;105327;1257;60134;-71
2023/04/15 08:40:03;;;;;;;;;;;;;;;6.54;88.78;100018.80;105359;1261;71820;-71
2023/04/15 08:42:49;;;;;;;;;;;;;;;6.60;88.53;100027.73;105064;1257;69785;-73
2023/04/15 08:45:18;;;;;;;;;;;;;;;6.68;88.06;100025.42;105056;1257;72267;-73
2023/04/15 08:47:47;;;;;;;;;;;;;;;6.74;87.09;100024.67;105169;1257;61172;-75
2023/04/15 08:50:15;;;;;;;;;;;;;;;6.77;86.88;100026.54;105240;1257;61605;-76
2023/04/15 08:52:54;;;;;;;;;;;;;;;6.79;86.71;100026.70;105465;1257;73768;-76
2023/04/15 08:55:23;;;;;;;;;;;;;;;6.75;86.52;100029.60;105857;1260;68783;-75
2023/04/15 08:57:51;;;;;;;;;;;;;;;6.73;86.76;100030.77;105285;1256;74787;-77
2023/04/15 09:00:21;;;;;;;;;;;;;;;6.75;86.53;100028.54;105709;1256;62084;-76
2023/04/15 09:02:49;;;;;;;;;;;;;;;6.75;86.27;100028.52;105406;1258;59576;-76
2023/04/15 09:05:20;;;;;;;;;;;;;;;6.73;85.92;100034.67;105846;1257;72267;-76
2023/04/15 09:07:52;;;;;;;;;;;;;;;6.74;85.68;100028.34;105301;1257;68009;-76
2023/04/15 09:10:20;;;;;;;;;;;;;;;6.73;85.61;100028.42;105738;1256;74742;-77
2023/04/15 09:12:49;;;;;;;;;;;;;;;6.73;85.73;100027.64;105289;1257;62471;-77
2023/04/15 09:15:17;;;;;;;;;;;;;;;6.72;85.68;100030.98;105583;1257;61582;-79
2023/04/15 09:17:46;;;;;;;;;;;;;;;6.70;85.64;100027.83;105320;1261;73482;-79
2023/04/15 09:20:15;;;;;;;;;;;;;;;6.70;85.63;100030.88;105397;1257;69279;-73
2023/04/15 09:22:44;;;;;;;;;;;;;;;6.71;85.69;100029.39;105931;1257;71917;-75
2023/04/15 09:25:21;;;;;;;;;;;;;;;6.69;85.75;100035.31;105356;1256;60740;-75
2023/04/15 09:27:50;;;;;;;;;;;;;;;6.68;86.12;100036.34;105324;1257;61061;-79
2023/04/15 09:30:18;;;;;;;;;;;;;;;6.67;86.40;100041.41;105662;1257;73801;-73
2023/04/15 09:32:48;;;;;;;;;;;;;;;6.67;86.48;100042.89;105354;1257;68572;-74
2023/04/15 09:35:16;;;;;;;;;;;;;;;6.70;86.55;100044.94;105277;1257;73544;-73
2023/04/15 09:37:44;;;;;;;;;;;;;;;6.74;86.83;100040.99;105746;1260;62348;-77
2023/04/15 09:40:13;;;;;;;;;;;;;;;6.76;86.82;100040.69;105282;1256;61476;-76
2023/04/15 09:42:55;;;;;;;;;;;;;;;6.81;86.81;100041.33;105167;1257;72369;-78
2023/04/15 09:45:23;;;;;;;;;;;;;;;6.84;86.28;100037.15;105225;1257;68900;-75
2023/04/15 09:47:59;;;;;;;;;;;;;;;6.85;86.13;100041.17;105198;1257;73559;-76
2023/04/15 09:50:28;;;;;;;;;;;;;;;6.83;85.86;100037.77;105330;1257;61569;-75
2023/04/15 09:52:56;;;;;;;;;;;;;;;6.81;85.93;100041.52;105317;1256;60469;-75
2023/04/15 09:55:26;;;;;;;;;;;;;;;6.83;86.09;100048.30;105439;1260;74644;-81
2023/04/15 09:57:54;;;;;;;;;;;;;;;6.83;85.89;100039.54;105624;1262;67697;-79
2023/04/15 10:00:23;;;;;;;;;;;;;;;6.82;85.09;100041.23;105554;1257;74461;-75
2023/04/15 10:02:51;;;;;;;;;;;;;;;6.82;84.63;100037.88;105225;1260;60466;-75
2023/04/15 10:05:22;;;;;;;;;;;;;;;6.79;84.58;100035.46;105706;1256;60479;-76
2023/04/15 10:07:51;;;;;;;;;;;;;;;6.80;84.61;100035.70;105371;1260;73246;-76
2023/04/15 10:10:19;;;;;;;;;;;;;;;6.83;84.65;100028.72;105867;1257;69269;-77
2023/04/15 10:12:47;;;;;;;;;;;;;;;6.83;84.37;100034.19;105353;1257;74350;-75
2023/04/15 10:15:16;;;;;;;;;;;;;;;6.84;84.55;100039.41;105418;1257;60461;-79
2023/04/15 10:17:45;;;;;;;;;;;;;;;6.83;84.51;100041.27;105392;1257;60489;-77
2023/04/15 10:20:13;;;;;;;;;;;;;;;6.83;84.61;100039.91;105443;1260;74297;-79
2023/04/15 10:22:41;;;;;;;;;;;;;;;6.83;84.95;100047.06;105408;1257;69561;-76
2023/04/15 10:25:12;;;;;;;;;;;;;;;6.82;85.43;100048.02;105688;1259;72968;-78
2023/04/15 10:27:41;;;;;;;;;;;;;;;6.81;85.81;100047.39;105821;1257;62737;-77
2023/04/15 10:30:10;;;;;;;;;;;;;;;6.81;86.00;100057.54;105290;1257;60460;-74
2023/04/15 10:32:39;;;;;;;;;;;;;;;6.82;86.07;100063.23;105357;1257;75673;-75
2023/04/15 10:35:08;;;;;;;;;;;;;;;6.81;85.83;100065.58;105826;1257;67333;-75
2023/04/15 10:37:37;;;;;;;;;;;;;;;6.80;85.82;100066.67;105686;1260;74185;-78
2023/04/15 10:40:25;;;;;;;;;;;;;;;6.83;86.12;100069.31;105789;1257;62326;-74
2023/04/15 10:43:02;;;;;;;;;;;;;;;6.88;85.97;100072.98;105198;1257;60511;-75
2023/04/15 10:45:32;;;;;;;;;;;;;;;6.92;86.00;100068.46;105191;1260;75812;-76
2023/04/15 10:48:01;;;;;;;;;;;;;;;6.94;85.76;100075.38;105409;1258;68458;-75
2023/04/15 10:50:31;;;;;;;;;;;;;;;6.91;85.85;100074.48;105128;1256;73911;-76
2023/04/15 10:53:01;;;;;;;;;;;;;;;6.92;85.84;100064.92;105202;1257;61411;-75
2023/04/15 10:55:32;;;;;;;;;;;;;;;6.91;85.96;100059.43;105572;1260;60434;-73
2023/04/15 10:58:01;;;;;;;;;;;;;;;6.91;86.14;100059.05;105262;1260;74241;-75
2023/04/15 11:00:34;;;;;;;;;;;;;;;6.92;86.06;100060.36;105235;1260;68479;-75
2023/04/15 11:03:05;;;;;;;;;;;;;;;6.94;85.73;100065.59;105235;1260;73955;-74
2023/04/15 11:05:40;;;;;;;;;;;;;;;6.96;85.73;100064.15;105256;1260;60480;-75
2023/04/15 11:08:09;;;;;;;;;;;;;;;6.97;85.48;100065.30;105369;1257;60972;-73
2023/04/15 11:10:37;;;;;;;;;;;;;;;6.97;85.42;100068.17;105294;1256;73643;-72
2023/04/15 11:13:08;;;;;;;;;;;;;;;6.95;85.72;100067.38;105805;1256;68274;-73
2023/04/15 11:15:40;;;;;;;;;;;;;;;6.97;85.92;100069.01;105104;1257;72913;-75
2023/04/15 11:18:09;;;;;;;;;;;;;;;7.00;85.91;100067.43;105175;1256;60594;-73
2023/04/15 11:20:44;;;;;;;;;;;;;;;7.04;86.09;100066.20;105422;1257;60916;-74
2023/04/15 11:23:12;;;;;;;;;;;;;;;7.05;85.89;100076.14;105808;1257;74474;-72
2023/04/15 11:25:45;;;;;;;;;;;;;;;7.05;86.11;100073.10;105178;1256;68396;-75
2023/04/15 11:28:13;;;;;;;;;;;;;;;7.04;86.34;100073.33;105764;1256;72643;-74
2023/04/15 11:30:41;;;;;;;;;;;;;;;6.98;86.66;100068.60;105288;1257;61611;-72
2023/04/15 11:33:11;;;;;;;;;;;;;;;6.94;86.78;100064.27;105504;1256;60983;-72
2023/04/15 11:35:40;;;;;;;;;;;;;;;6.92;86.94;100063.48;105406;1260;74504;-73
2023/04/15 11:38:09;;;;;;;;;;;;;;;6.93;86.98;100057.65;105863;1257;68231;-72
2023/04/15 11:40:37;;;;;;;;;;;;;;;6.96;87.07;100061.93;105356;1257;72833;-73
2023/04/15 11:43:08;;;;;;;;;;;;;;;6.98;86.92;100068.84;105196;1260;60465;-75
2023/04/15 11:45:38;;;;;;;;;;;;;;;7.01;86.80;100072.43;105369;1260;61176;-76
2023/04/15 11:48:06;;;;;;;;;;;;;;;6.98;86.58;100069.83;105854;1261;73793;-74
2023/04/15 11:50:35;;;;;;;;;;;;;;;6.97;86.50;100071.19;105670;1257;68911;-74
2023/04/15 11:53:04;;;;;;;;;;;;;;;6.96;86.38;100072.34;105809;1257;74488;-76
2023/04/15 11:55:45;;;;;;;;;;;;;;;6.96;86.54;100069.35;105805;1260;62986;-75
2023/04/15 11:58:23;;;;;;;;;;;;;;;6.97;86.57;100071.73;105488;1256;60351;-76
2023/04/15 12:00:55;;;;;;;;;;;;;;;6.97;86.54;100073.86;105579;1258;73710;-74
2023/04/15 12:03:24;;;;;;;;;;;;;;;6.99;86.28;100066.33;105565;1256;68161;-75
2023/04/15 12:06:15;;;;;;;;;;;;;;;6.97;85.76;100061.68;105202;1257;74208;-76
2023/04/15 12:08:47;;;;;;;;;;;;;;;6.94;85.87;100061.25;105680;1261;63293;-76
2023/04/15 12:11:20;;;;;;;;;;;;;;;6.93;85.95;100047.77;105818;1260;60783;-75
2023/04/15 12:13:50;;;;;;;;;;;;;;;6.93;85.95;100057.94;105715;1257;72956;-75
2023/04/15 12:16:18;;;;;;;;;;;;;;;6.95;85.98;100055.83;105840;1260;66556;-73
2023/04/15 12:18:54;;;;;;;;;;;;;;;6.98;86.11;100053.62;105318;1257;72913;-76
2023/04/15 12:21:24;;;;;;;;;;;;;;;6.98;86.12;100056.98;105663;1257;61723;-71
2023/04/15 12:23:56;;;;;;;;;;;;;;;6.99;86.37;100050.83;105691;1257;61843;-73
2023/04/15 12:26:27;;;;;;;;;;;;;;;6.98;86.16;100044.44;105179;1257;73686;-72
2023/04/15 12:29:06;;;;;;;;;;;;;;;6.97;86.01;100047.65;105248;1262;67017;-73
2023/04/15 12:31:35;;;;;;;;;;;;;;;6.97;86.06;100037.79;105205;1257;72184;-73
2023/04/15 12:34:06;;;;;;;;;;;;;;;7.00;85.89;100036.20;105230;1257;60534;-71
2023/04/15 12:36:36;;;;;;;;;;;;;;;7.00;86.06;100039.57;105032;1261;60463;-70
2023/04/15 12:39:05;;;;;;;;;;;;;;;6.99;86.27;100029.42;109024;1256;74784;-71
2023/04/15 12:41:34;;;;;;;;;;;;;;;7.02;86.36;100031.41;106354;1257;67449;-73
2023/04/15 12:44:02;;;;;;;;;;;;;;;7.06;86.25;100029.57;108886;1257;74215;-69
2023/04/15 12:46:31;;;;;;;;;;;;;;;7.05;86.19;100025.77;109042;1257;62798;-72
2023/04/15 12:48:59;;;;;;;;;;;;;;;7.02;86.10;100021.12;106122;1256;60539;-72
2023/04/15 12:51:27;;;;;;;;;;;;;;;7.04;86.23;100021.77;107257;1257;74206;-73
2023/04/15 12:53:56;;;;;;;;;;;;;;;7.04;86.35;100021.61;105326;1257;69327;-73
2023/04/15 12:56:24;;;;;;;;;;;;;;;7.03;86.23;100024.73;105861;1257;72966;-71
2023/04/15 12:58:52;;;;;;;;;;;;;;;7.02;86.29;100018.66;105461;1256;61594;-73
2023/04/15 13:01:20;;;;;;;;;;;;;;;7.02;86.39;100025.90;105266;1257;60505;-70
2023/04/15 13:03:51;;;;;;;;;;;;;;;7.02;86.73;100028.13;105239;1260;73677;-73